Time;durP1;ratioP1;P1;durP2;ratioP2;P2;SDS_P1;SDS_P2;PMS_P1;PMS_P2;Temp;Humidity;BMP_temperature;BMP_pressure;BME280_temperature;BME280_humidity;BME280_pressure;Samples;Min_cycle;Max_cycle;Signal;HPM_P1;HPM_P2
2023/12/15 00:02:22;;;;;;;18.77;8.57;;;;;;;4.68;100.00;102661.78;7392167;19;19923;-79
2023/12/15 00:04:53;;;;;;;20.95;9.43;;;;;;;4.68;100.00;102659.13;7391107;19;19922;-79
2023/12/15 00:07:22;;;;;;;18.42;8.73;;;;;;;4.68;100.00;102661.78;7396661;19;19926;-80
2023/12/15 00:09:50;;;;;;;18.85;8.90;;;;;;;4.68;100.00;102651.97;7397293;19;19923;-79
2023/12/15 00:12:19;;;;;;;21.38;9.63;;;;;;;4.68;100.00;102651.97;7396624;19;19922;-79
2023/12/15 00:14:47;;;;;;;19.55;9.32;;;;;;;4.68;100.00;102651.13;7396986;19;19947;-79
2023/12/15 00:17:14;;;;;;;21.40;10.05;;;;;;;4.68;100.00;102659.13;7395366;19;20533;-79
2023/12/15 00:20:06;;;;;;;18.75;8.70;;;;;;;4.68;100.00;102657.31;7395578;19;19919;-80
2023/12/15 00:22:35;;;;;;;22.50;9.20;;;;;;;4.68;100.00;102664.47;7396044;19;19951;-79
2023/12/15 00:25:03;;;;;;;22.90;9.85;;;;;;;4.68;100.00;102675.13;7393725;19;19943;-79
2023/12/15 00:27:32;;;;;;;28.13;9.10;;;;;;;4.70;100.00;102673.25;7395664;19;19925;-79
2023/12/15 00:30:00;;;;;;;19.65;8.63;;;;;;;4.71;100.00;102670.47;7395949;19;19947;-79
2023/12/15 00:32:29;;;;;;;17.30;8.40;;;;;;;4.73;100.00;102662.38;7396501;19;19923;-80
2023/12/15 00:34:57;;;;;;;18.33;8.82;;;;;;;4.74;100.00;102664.09;7395959;19;19946;-79
2023/12/15 00:37:28;;;;;;;20.88;8.85;;;;;;;4.73;100.00;102667.72;7394192;19;20473;-80
2023/12/15 00:39:58;;;;;;;20.25;9.90;;;;;;;4.74;100.00;102666.75;7390214;19;19919;-79
2023/12/15 00:42:26;;;;;;;18.58;8.68;;;;;;;4.74;100.00;102664.97;7396801;19;20714;-79
2023/12/15 00:45:15;;;;;;;20.92;8.43;;;;;;;4.77;100.00;102666.56;7391794;19;20376;-79
2023/12/15 00:47:43;;;;;;;21.35;9.10;;;;;;;4.77;100.00;102666.56;7395023;19;19947;-79
2023/12/15 00:50:13;;;;;;;18.98;9.27;;;;;;;4.79;100.00;102665.50;7394983;19;19930;-79
2023/12/15 00:52:44;;;;;;;19.73;9.25;;;;;;;4.81;100.00;102663.59;7395707;19;20476;-79
2023/12/15 00:55:13;;;;;;;17.90;8.43;;;;;;;4.82;100.00;102665.34;7393437;19;19918;-79
2023/12/15 00:57:41;;;;;;;18.70;9.25;;;;;;;4.84;100.00;102675.91;7396160;19;19943;-79
2023/12/15 01:00:11;;;;;;;18.13;8.93;;;;;;;4.85;100.00;102673.13;7391123;19;19919;-79
2023/12/15 01:03:00;;;;;;;18.70;9.32;;;;;;;4.88;100.00;102677.41;7393353;19;20287;-79
2023/12/15 01:05:28;;;;;;;20.30;9.50;;;;;;;4.88;100.00;102688.09;7394564;19;19946;-79
2023/12/15 01:08:00;;;;;;;19.45;9.05;;;;;;;4.93;100.00;102680.66;7392454;19;20404;-79
2023/12/15 01:10:28;;;;;;;22.02;9.77;;;;;;;4.95;100.00;102694.78;7395922;19;19926;-79
2023/12/15 01:12:57;;;;;;;18.20;8.52;;;;;;;4.98;100.00;102689.25;7400872;19;20555;-79
2023/12/15 01:15:45;;;;;;;20.02;9.13;;;;;;;5.02;100.00;102698.78;7385588;19;19933;-79
2023/12/15 01:18:15;;;;;;;19.75;9.77;;;;;;;5.03;100.00;102713.88;7391435;19;19926;-79
2023/12/15 01:20:43;;;;;;;17.10;9.05;;;;;;;5.07;100.00;102723.41;7387055;19;19947;-79
2023/12/15 01:23:14;;;;;;;16.52;8.50;;;;;;;5.08;100.00;102719.78;7392789;19;19942;-79
2023/12/15 01:25:43;;;;;;;20.25;9.57;;;;;;;5.13;100.00;102727.50;7393285;19;20362;-79
2023/12/15 01:28:11;;;;;;;20.75;9.60;;;;;;;5.15;100.00;102729.13;7397064;19;19926;-79
2023/12/15 01:30:40;;;;;;;17.10;9.43;;;;;;;5.18;100.00;102736.09;7395889;19;20377;-79
2023/12/15 01:33:08;;;;;;;16.98;8.45;;;;;;;5.21;100.00;102738.56;7397088;19;19923;-79
2023/12/15 01:35:37;;;;;;;17.70;9.00;;;;;;;5.23;100.00;102732.16;7392889;19;19979;-79
2023/12/15 01:38:05;;;;;;;21.20;9.77;;;;;;;5.25;100.00;102740.09;7394176;19;19938;-79
2023/12/15 01:40:36;;;;;;;23.88;9.52;;;;;;;5.27;100.00;102743.50;7385392;19;19918;-79
2023/12/15 01:43:05;;;;;;;21.95;10.35;;;;;;;5.29;100.00;102742.47;7394322;19;19922;-79
2023/12/15 01:45:34;;;;;;;22.42;10.63;;;;;;;5.31;100.00;102745.88;7395069;19;19926;-79
2023/12/15 01:48:03;;;;;;;19.10;9.38;;;;;;;5.32;100.00;102744.94;7396668;19;19922;-79
2023/12/15 01:50:31;;;;;;;23.55;10.57;;;;;;;5.32;100.00;102739.59;7395550;19;20452;-79
2023/12/15 01:53:00;;;;;;;20.73;10.35;;;;;;;5.32;100.00;102734.25;7391691;19;19959;-79
2023/12/15 01:55:29;;;;;;;17.67;9.23;;;;;;;5.35;100.00;102738.56;7393372;19;19923;-79
2023/12/15 01:58:00;;;;;;;22.88;9.90;;;;;;;5.37;100.00;102744.66;7395790;19;19933;-79
2023/12/15 02:00:28;;;;;;;18.77;9.43;;;;;;;5.39;100.00;102748.91;7391504;19;19947;-79
2023/12/15 02:02:57;;;;;;;22.42;9.93;;;;;;;5.39;100.00;102748.09;7392660;19;19930;-79
2023/12/15 02:05:25;;;;;;;22.75;10.98;;;;;;;5.41;100.00;102756.84;7393834;19;20203;-79
2023/12/15 02:07:54;;;;;;;19.85;11.15;;;;;;;5.43;100.00;102762.97;7395667;19;20152;-79
2023/12/15 02:10:23;;;;;;;22.42;9.57;;;;;;;5.43;100.00;102753.16;7383430;19;19923;-79
2023/12/15 02:12:51;;;;;;;24.02;10.55;;;;;;;5.44;100.00;102760.19;7388226;19;19955;-79
2023/12/15 02:15:22;;;;;;;21.85;10.55;;;;;;;5.47;100.00;102772.50;7392622;19;20428;-79
2023/12/15 02:17:51;;;;;;;20.08;10.13;;;;;;;5.48;100.00;102774.22;7396314;19;19947;-79
2023/12/15 02:20:20;;;;;;;19.85;10.80;;;;;;;5.49;100.00;102787.47;7398384;19;19918;-79
2023/12/15 02:22:51;;;;;;;23.52;10.60;;;;;;;5.52;100.00;102785.59;7386635;19;19926;-79
2023/12/15 02:25:20;;;;;;;24.17;11.40;;;;;;;5.53;100.00;102785.47;7390130;19;19923;-79
2023/12/15 02:27:49;;;;;;;22.98;10.40;;;;;;;5.54;100.00;102786.34;7392448;19;19922;-80
2023/12/15 02:30:17;;;;;;;22.85;10.77;;;;;;;5.56;100.00;102787.97;7390964;19;19962;-79
2023/12/15 02:32:46;;;;;;;25.33;10.48;;;;;;;5.58;100.00;102790.53;7393013;19;19919;-79
2023/12/15 02:35:14;;;;;;;22.50;11.25;;;;;;;5.57;100.00;102787.00;7392481;19;20390;-79
2023/12/15 02:37:43;;;;;;;22.42;10.32;;;;;;;5.61;100.00;102795.69;7391439;19;19918;-79
2023/12/15 02:40:15;;;;;;;25.92;10.77;;;;;;;5.62;100.00;102808.09;7389434;19;19918;-79
2023/12/15 02:42:43;;;;;;;23.33;10.90;;;;;;;5.65;100.00;102798.03;7384041;19;20791;-79
2023/12/15 02:45:12;;;;;;;26.95;10.85;;;;;;;5.67;100.00;102789.94;7392164;19;19968;-79
2023/12/15 02:47:40;;;;;;;27.52;11.43;;;;;;;5.69;100.00;102782.69;7392191;19;19950;-80
2023/12/15 02:50:11;;;;;;;26.75;11.18;;;;;;;5.70;100.00;102779.91;7392683;19;19923;-79
2023/12/15 02:52:40;;;;;;;29.08;11.70;;;;;;;5.72;100.00;102764.63;7392191;19;19923;-79
2023/12/15 02:55:11;;;;;;;26.50;10.70;;;;;;;5.73;100.00;102774.38;7390812;19;20608;-79
2023/12/15 02:57:42;;;;;;;28.88;11.88;;;;;;;5.76;100.00;102781.31;7391825;19;19935;-79
2023/12/15 03:00:12;;;;;;;31.35;12.15;;;;;;;5.76;100.00;102792.88;7382851;19;20475;-80
2023/12/15 03:02:42;;;;;;;34.88;12.07;;;;;;;5.78;100.00;102795.47;7389917;19;19938;-79
2023/12/15 03:05:11;;;;;;;30.10;11.98;;;;;;;5.79;100.00;102800.69;7392146;19;20355;-79
2023/12/15 03:07:40;;;;;;;39.22;13.80;;;;;;;5.80;100.00;102801.56;7392071;19;20357;-79
2023/12/15 03:10:09;;;;;;;31.20;14.15;;;;;;;5.81;100.00;102803.28;7385158;19;19950;-79
2023/12/15 03:12:37;;;;;;;32.83;11.57;;;;;;;5.81;100.00;102805.97;7392298;19;19922;-79
2023/12/15 03:15:10;;;;;;;33.72;12.75;;;;;;;5.82;100.00;102807.69;7389864;19;19941;-80
2023/12/15 03:17:38;;;;;;;30.85;11.77;;;;;;;5.83;100.00;102812.06;7389741;19;19937;-79
2023/12/15 03:20:09;;;;;;;27.77;10.45;;;;;;;5.83;100.00;102817.41;7389161;19;20436;-79
2023/12/15 03:22:39;;;;;;;27.35;11.98;;;;;;;5.84;100.00;102819.13;7397494;19;19918;-79
2023/12/15 03:25:08;;;;;;;31.50;12.60;;;;;;;5.84;100.00;102813.78;7395848;19;19950;-79
2023/12/15 03:27:37;;;;;;;37.30;10.70;;;;;;;5.85;100.00;102815.50;7395637;19;19919;-79
2023/12/15 03:30:09;;;;;;;28.90;11.13;;;;;;;5.87;100.00;102819.81;7387196;19;19923;-79
2023/12/15 03:32:37;;;;;;;;;;;;;;;5.85;100.00;102818.19;7394580;19;19937;-79
2023/12/15 03:35:07;;;;;;;29.67;10.32;;;;;;;5.87;100.00;102814.47;7390881;19;19942;-79
2023/12/15 03:37:35;;;;;;;28.38;10.43;;;;;;;5.88;100.00;102818.88;7390004;19;20583;-79
2023/12/15 03:40:04;;;;;;;25.48;10.45;;;;;;;5.90;100.00;102826.81;7384399;19;19947;-79
2023/12/15 03:42:33;;;;;;;28.30;9.63;;;;;;;5.89;100.00;102825.94;7387544;19;19982;-79
2023/12/15 03:45:01;;;;;;;27.05;10.50;;;;;;;5.91;100.00;102825.84;7389920;19;19951;-79
2023/12/15 03:47:32;;;;;;;25.90;10.27;;;;;;;5.91;100.00;102832.03;7389964;19;19914;-81
2023/12/15 03:50:01;;;;;;;24.90;9.80;;;;;;;5.91;100.00;102836.56;7390925;19;20381;-81
2023/12/15 03:52:30;;;;;;;27.83;10.15;;;;;;;5.91;100.00;102836.56;7387524;19;19950;-81
2023/12/15 03:54:59;;;;;;;21.90;10.02;;;;;;;5.90;100.00;102841.03;7387638;19;19919;-81
2023/12/15 03:57:27;;;;;;;22.00;9.70;;;;;;;5.90;100.00;102837.50;7381200;19;19947;-81
2023/12/15 03:59:56;;;;;;;27.13;10.48;;;;;;;5.88;100.00;102834.91;7385910;19;19930;-79
2023/12/15 04:02:24;;;;;;;29.23;11.20;;;;;;;5.87;100.00;102841.22;7388421;19;21047;-79
2023/12/15 04:04:55;;;;;;;23.77;10.77;;;;;;;5.85;100.00;102842.25;7386271;19;19914;-79
2023/12/15 04:07:24;;;;;;;23.88;10.80;;;;;;;5.83;100.00;102836.13;7391444;19;19926;-79
2023/12/15 04:09:54;;;;;;;25.95;9.65;;;;;;;5.81;100.00;102843.41;7386716;19;19930;-79
2023/12/15 04:12:22;;;;;;;25.77;10.15;;;;;;;5.78;100.00;102846.28;7388248;19;19955;-79
2023/12/15 04:14:51;;;;;;;19.63;10.25;;;;;;;5.75;100.00;102841.13;7381593;19;19926;-79
2023/12/15 04:17:20;;;;;;;24.77;10.00;;;;;;;5.72;100.00;102846.66;7387269;19;19931;-79
2023/12/15 04:19:48;;;;;;;26.83;10.68;;;;;;;5.70;100.00;102851.22;7389441;19;19928;-79
2023/12/15 04:22:22;;;;;;;19.67;8.90;;;;;;;5.68;100.00;102853.16;7387588;19;19922;-79
2023/12/15 04:24:51;;;;;;;24.77;10.25;;;;;;;5.65;100.00;102840.00;7386381;19;20334;-79
2023/12/15 04:27:19;;;;;;;26.20;9.82;;;;;;;5.64;100.00;102848.97;7389251;19;19925;-79
2023/12/15 04:29:48;;;;;;;22.10;9.90;;;;;;;5.63;100.00;102860.63;7390063;19;20329;-79
2023/12/15 04:32:17;;;;;;;23.58;10.95;;;;;;;5.61;100.00;102852.69;7386565;19;19914;-79
2023/12/15 04:34:45;;;;;;;20.33;9.48;;;;;;;5.61;100.00;102862.53;7386371;19;19947;-79
2023/12/15 04:37:14;;;;;;;24.98;9.60;;;;;;;5.58;100.00;102860.91;7386628;19;19951;-79
2023/12/15 04:39:46;;;;;;;23.83;11.02;;;;;;;5.58;100.00;102868.91;7383727;19;19918;-79
2023/12/15 04:42:15;;;;;;;30.00;11.77;;;;;;;5.59;100.00;102875.13;7387430;19;19954;-79
2023/12/15 04:44:44;;;;;;;26.25;10.77;;;;;;;5.59;100.00;102867.09;7386578;19;19928;-79
2023/12/15 04:47:12;;;;;;;26.50;10.57;;;;;;;5.58;100.00;102878.75;7388742;19;19923;-79
2023/12/15 04:49:41;;;;;;;24.48;10.63;;;;;;;5.58;100.00;102884.97;7386776;19;19922;-79
2023/12/15 04:52:09;;;;;;;25.33;10.45;;;;;;;5.55;100.00;102889.63;7387639;19;19926;-79
2023/12/15 04:54:38;;;;;;;21.90;9.27;;;;;;;5.53;100.00;102895.06;7393046;19;19947;-79
2023/12/15 04:57:09;;;;;;;30.73;10.93;;;;;;;5.54;100.00;102893.25;7393138;19;19926;-79
2023/12/15 04:59:39;;;;;;;22.10;10.07;;;;;;;5.54;100.00;102896.78;7392919;19;19926;-80
2023/12/15 05:02:09;;;;;;;26.40;10.82;;;;;;;5.53;100.00;102896.88;7388073;19;19919;-79
2023/12/15 05:04:37;;;;;;;26.45;10.27;;;;;;;5.55;100.00;102909.22;7393996;19;19935;-80
2023/12/15 05:07:06;;;;;;;28.38;10.38;;;;;;;5.57;100.00;102909.09;7393843;19;20494;-80
2023/12/15 05:09:34;;;;;;;24.65;10.45;;;;;;;5.60;100.00;102911.59;7391163;19;19923;-79
2023/12/15 05:12:03;;;;;;;32.42;11.35;;;;;;;5.62;100.00;102923.91;7390552;19;20286;-79
2023/12/15 05:14:34;;;;;;;23.30;10.18;;;;;;;5.65;100.00;102931.75;7392100;19;19930;-79
2023/12/15 05:17:03;;;;;;;33.38;10.98;;;;;;;5.68;100.00;102930.72;7390932;19;19943;-79
2023/12/15 05:19:31;;;;;;;27.40;10.63;;;;;;;5.71;100.00;102927.84;7389264;19;19966;-79
2023/12/15 05:22:00;;;;;;;30.83;11.20;;;;;;;5.74;100.00;102927.63;7392844;19;20471;-79
2023/12/15 05:24:31;;;;;;;29.77;9.55;;;;;;;5.74;100.00;102931.16;7392903;19;19934;-79
2023/12/15 05:27:01;;;;;;;28.52;9.45;;;;;;;5.77;100.00;102930.13;7393946;19;19941;-79
2023/12/15 05:29:29;;;;;;;33.97;10.15;;;;;;;5.76;100.00;102934.63;7395854;19;20898;-79
2023/12/15 05:32:20;;;;;;;24.90;9.02;;;;;;;5.79;100.00;102933.56;7395457;19;19921;-80
2023/12/15 05:34:49;;;;;;;21.60;9.38;;;;;;;5.78;100.00;102945.25;7394381;19;20365;-79
2023/12/15 05:37:18;;;;;;;27.90;9.80;;;;;;;5.77;100.00;102941.69;7386934;19;20432;-79
2023/12/15 05:39:46;;;;;;;21.83;9.38;;;;;;;5.76;100.00;102957.84;7389429;19;19930;-79
2023/12/15 05:42:15;;;;;;;24.08;10.20;;;;;;;5.73;100.00;102952.69;7389657;19;19922;-79
2023/12/15 05:44:44;;;;;;;28.83;9.38;;;;;;;5.71;100.00;102952.75;7391430;19;19922;-79
2023/12/15 05:47:12;;;;;;;25.90;9.70;;;;;;;5.69;100.00;102953.81;7391199;19;19922;-79
2023/12/15 05:49:44;;;;;;;31.00;10.40;;;;;;;5.67;100.00;102956.59;7392932;19;19955;-79
2023/12/15 05:52:14;;;;;;;22.73;9.00;;;;;;;5.67;100.00;102963.75;7394143;19;19926;-79
2023/12/15 05:54:43;;;;;;;24.90;10.32;;;;;;;5.67;100.00;102961.94;7392533;19;19922;-79
2023/12/15 05:57:11;;;;;;;23.00;8.93;;;;;;;5.68;100.00;102973.50;7392112;19;19923;-79
2023/12/15 05:59:40;;;;;;;24.52;9.60;;;;;;;5.71;100.00;102975.97;7381823;19;19923;-79
2023/12/15 06:02:09;;;;;;;22.27;9.00;;;;;;;5.71;100.00;102970.63;7389229;19;20589;-79
2023/12/15 06:04:38;;;;;;;24.27;10.82;;;;;;;5.73;100.00;102974.06;7391957;19;19914;-79
2023/12/15 06:07:09;;;;;;;20.98;9.00;;;;;;;5.74;100.00;102975.75;7392450;19;19922;-79
2023/12/15 06:09:38;;;;;;;27.10;8.93;;;;;;;5.76;100.00;102980.09;7387998;19;19926;-79
2023/12/15 06:12:09;;;;;;;24.58;8.80;;;;;;;5.77;100.00;102973.78;7392569;19;19931;-79
2023/12/15 06:14:39;;;;;;;23.00;8.48;;;;;;;5.80;100.00;102975.41;7387129;19;19938;-79
2023/12/15 06:17:08;;;;;;;24.60;8.93;;;;;;;5.83;100.00;102977.88;7390753;19;19929;-79
2023/12/15 06:19:40;;;;;;;24.65;8.55;;;;;;;5.83;100.00;102972.53;7390343;19;19926;-79
2023/12/15 06:22:11;;;;;;;24.65;8.85;;;;;;;5.84;100.00;102979.59;7385830;19;19951;-79
2023/12/15 06:24:40;;;;;;;15.98;8.25;;;;;;;5.85;100.00;102987.53;7385361;19;19946;-79
2023/12/15 06:27:09;;;;;;;22.90;8.65;;;;;;;5.86;100.00;102985.75;7380652;19;19938;-79
2023/12/15 06:29:39;;;;;;;23.08;8.02;;;;;;;5.86;100.00;102993.75;7388110;19;19918;-79
2023/12/15 06:32:10;;;;;;;20.00;7.90;;;;;;;5.85;100.00;102992.03;7389805;19;20302;-79
2023/12/15 06:34:39;;;;;;;19.10;8.88;;;;;;;5.82;100.00;103003.78;7391775;19;20333;-78
2023/12/15 06:37:07;;;;;;;23.15;8.30;;;;;;;5.81;100.00;103007.41;7394258;19;19986;-78
2023/12/15 06:39:38;;;;;;;22.52;8.13;;;;;;;5.79;100.00;103020.00;7389201;19;19926;-80
2023/12/15 06:42:07;;;;;;;24.08;7.95;;;;;;;5.78;100.00;103028.97;7390505;19;19922;-81
2023/12/15 06:44:36;;;;;;;24.92;8.00;;;;;;;5.77;100.00;103021.06;7388212;19;20388;-81
2023/12/15 06:47:05;;;;;;;25.15;8.70;;;;;;;5.78;100.00;103025.47;7390512;19;19947;-81
2023/12/15 06:49:33;;;;;;;26.00;8.02;;;;;;;5.78;100.00;103017.44;7388551;19;19919;-81
2023/12/15 06:52:03;;;;;;;19.02;8.77;;;;;;;5.79;100.00;103024.50;7386504;19;19923;-79
2023/12/15 06:54:31;;;;;;;19.88;8.20;;;;;;;5.81;100.00;103030.63;7385664;19;19922;-79
2023/12/15 06:57:03;;;;;;;23.27;7.93;;;;;;;5.83;100.00;103039.41;7389944;19;19926;-82
2023/12/15 06:59:31;;;;;;;19.30;8.32;;;;;;;5.83;100.00;103040.25;7389635;19;19955;-81
2023/12/15 07:02:00;;;;;;;23.77;7.75;;;;;;;5.85;100.00;103040.19;7385941;19;19938;-81
2023/12/15 07:04:28;;;;;;;22.95;7.88;;;;;;;5.85;100.00;103033.00;7390629;19;19941;-80
2023/12/15 07:06:57;;;;;;;22.85;7.32;;;;;;;5.88;100.00;103034.66;7389108;19;19946;-78
2023/12/15 07:09:26;;;;;;;15.25;7.63;;;;;;;5.89;100.00;103036.41;7388270;19;19922;-80
2023/12/15 07:11:57;;;;;;;22.55;7.45;;;;;;;5.89;100.00;103028.38;7389472;19;19918;-78
2023/12/15 07:14:28;;;;;;;24.65;8.00;;;;;;;5.90;100.00;103035.44;7358112;19;19926;-79
2023/12/15 07:16:57;;;;;;;22.75;6.97;;;;;;;5.90;100.00;103032.78;7355066;19;19954;-79
2023/12/15 07:19:26;;;;;;;17.67;7.00;;;;;;;5.91;100.00;103038.00;7360943;19;19927;-79
2023/12/15 07:21:54;;;;;;;18.55;7.75;;;;;;;5.91;100.00;103037.19;7371379;19;20240;-80
2023/12/15 07:24:23;;;;;;;25.73;8.25;;;;;;;5.92;100.00;103033.53;7391134;19;19930;-79
2023/12/15 07:26:51;;;;;;;17.33;8.77;;;;;;;5.92;100.00;103044.22;7391266;19;19922;-79
2023/12/15 07:29:22;;;;;;;20.25;7.43;;;;;;;5.92;100.00;103057.59;7392735;19;19915;-79
2023/12/15 07:31:54;;;;;;;20.80;7.18;;;;;;;5.93;100.00;103059.31;7391779;19;19929;-79
2023/12/15 07:34:22;;;;;;;23.35;7.75;;;;;;;5.95;100.00;103068.13;7389659;19;19918;-79
2023/12/15 07:36:51;;;;;;;21.08;7.68;;;;;;;5.97;100.00;103076.91;7391093;19;20253;-80
2023/12/15 07:39:21;;;;;;;22.33;7.18;;;;;;;5.98;100.00;103088.47;7388273;19;20350;-79
2023/12/15 07:41:50;;;;;;;20.63;7.07;;;;;;;6.00;100.00;103086.59;7392976;19;19923;-79
2023/12/15 07:44:19;;;;;;;19.38;6.90;;;;;;;6.02;100.00;103087.34;7389282;19;19947;-79
2023/12/15 07:46:48;;;;;;;20.42;6.90;;;;;;;6.02;100.00;103090.88;7390161;19;19938;-79
2023/12/15 07:49:19;;;;;;;18.45;6.50;;;;;;;6.03;100.00;103097.94;7387891;19;19990;-79
2023/12/15 07:51:49;;;;;;;19.67;7.32;;;;;;;6.05;100.00;103112.09;7385409;19;19959;-79
2023/12/15 07:54:18;;;;;;;25.85;7.85;;;;;;;6.06;100.00;103113.81;7388737;19;20200;-79
2023/12/15 07:56:47;;;;;;;19.00;8.10;;;;;;;6.08;100.00;103116.41;7387836;19;21534;-79
2023/12/15 07:59:15;;;;;;;25.50;7.35;;;;;;;6.08;100.00;103125.28;7390761;19;19990;-79
2023/12/15 08:01:51;;;;;;;22.45;7.75;;;;;;;6.10;100.00;103131.41;7385778;19;19943;-80
2023/12/15 08:04:23;;;;;;;22.05;7.13;;;;;;;6.12;100.00;103139.34;7387098;19;21939;-80
2023/12/15 08:06:51;;;;;;;21.63;7.13;;;;;;;6.12;100.00;103150.06;7384304;19;19989;-80
2023/12/15 08:09:20;;;;;;;20.15;7.10;;;;;;;6.13;100.00;103141.91;7386902;19;19937;-79
2023/12/15 08:11:48;;;;;;;24.70;7.95;;;;;;;6.14;100.00;103146.31;7388766;19;19919;-79
2023/12/15 08:14:17;;;;;;;24.60;7.80;;;;;;;6.14;100.00;103154.34;7375776;19;19926;-80
2023/12/15 08:16:46;;;;;;;19.92;7.97;;;;;;;6.15;100.00;103161.44;7389668;19;20466;-79
2023/12/15 08:19:14;;;;;;;21.67;7.07;;;;;;;6.16;100.00;103160.47;7388637;19;19918;-79
2023/12/15 08:21:47;;;;;;;18.42;6.63;;;;;;;6.17;100.00;103162.19;7388748;19;19922;-79
2023/12/15 08:24:16;;;;;;;18.50;6.72;;;;;;;6.19;100.00;103168.31;7389402;19;19923;-79
2023/12/15 08:26:45;;;;;;;20.40;6.82;;;;;;;6.20;100.00;103164.69;7382324;19;19989;-79
2023/12/15 08:29:14;;;;;;;21.10;6.75;;;;;;;6.22;100.00;103164.56;7389166;19;19926;-79
2023/12/15 08:31:43;;;;;;;17.35;5.93;;;;;;;6.23;100.00;103175.19;7387259;19;19919;-79
2023/12/15 08:34:12;;;;;;;22.35;6.85;;;;;;;6.24;100.00;103170.72;7377803;19;20474;-79
2023/12/15 08:36:40;;;;;;;24.38;7.00;;;;;;;6.25;100.00;103172.44;7375702;19;19921;-79
2023/12/15 08:39:12;;;;;;;21.10;6.35;;;;;;;6.25;100.00;103178.66;7382367;19;19947;-79
2023/12/15 08:41:41;;;;;;;18.30;5.85;;;;;;;6.25;100.00;103181.34;7394431;19;19926;-79
2023/12/15 08:44:09;;;;;;;18.05;6.25;;;;;;;6.28;100.00;103183.81;7392427;19;19923;-79
2023/12/15 08:46:38;;;;;;;22.80;6.18;;;;;;;6.32;100.00;103187.16;7395106;19;19926;-79
2023/12/15 08:49:06;;;;;;;22.33;6.97;;;;;;;6.32;100.00;103201.41;7397319;19;19950;-79
2023/12/15 08:51:35;;;;;;;16.45;6.97;;;;;;;6.33;100.00;103202.28;7388869;19;19926;-80
2023/12/15 08:54:03;;;;;;;18.80;5.68;;;;;;;6.35;100.00;103208.38;7394654;19;19965;-79
2023/12/15 08:56:36;;;;;;;19.92;6.00;;;;;;;6.35;100.00;103217.28;7386053;19;19926;-79
2023/12/15 08:59:04;;;;;;;19.17;6.38;;;;;;;6.36;100.00;103224.38;7394999;19;20020;-79
2023/12/15 09:01:33;;;;;;;19.10;6.72;;;;;;;6.37;100.00;103218.06;7393973;19;19926;-79
2023/12/15 09:04:02;;;;;;;16.83;5.72;;;;;;;6.39;100.00;103218.81;7391427;19;19918;-79
2023/12/15 09:06:51;;;;;;;24.00;6.82;;;;;;;6.39;100.00;103226.00;7392894;19;19961;-79
2023/12/15 09:09:21;;;;;;;19.55;6.65;;;;;;;6.41;100.00;103234.81;7390287;19;19943;-79
2023/12/15 09:11:52;;;;;;;18.50;5.50;;;;;;;6.42;100.00;103244.56;7393498;19;19926;-79
2023/12/15 09:14:21;;;;;;;20.65;6.50;;;;;;;6.45;100.00;103244.38;7393356;19;20778;-79
2023/12/15 09:16:50;;;;;;;17.95;6.50;;;;;;;6.47;100.00;103252.31;7392297;19;20266;-80
2023/12/15 09:19:38;;;;;;;14.63;5.25;;;;;;;6.47;100.00;103255.00;7393487;19;19922;-79
2023/12/15 09:22:07;;;;;;;16.42;6.40;;;;;;;6.48;100.00;103260.25;7395056;19;19919;-80
2023/12/15 09:24:56;;;;;;;31.10;9.40;;;;;;;6.51;100.00;103260.09;7390744;19;19978;-79
2023/12/15 09:27:28;;;;;;;27.85;8.35;;;;;;;6.52;100.00;103272.50;7393920;19;20017;-79
2023/12/15 09:29:56;;;;;;;29.65;10.35;;;;;;;6.53;100.00;103268.00;7396108;19;19918;-79
2023/12/15 09:32:25;;;;;;;33.97;7.28;;;;;;;6.55;100.00;103280.38;7399885;19;19919;-82
2023/12/15 09:34:54;;;;;;;92.93;32.75;;;;;;;6.58;100.00;103290.88;7392177;19;20353;-79
2023/12/15 09:37:23;;;;;;;21.30;8.55;;;;;;;6.62;100.00;103294.22;7392395;19;20570;-79
2023/12/15 09:39:51;;;;;;;18.13;6.72;;;;;;;6.64;100.00;103287.84;7389037;19;20273;-79
2023/12/15 09:42:23;;;;;;;34.53;11.35;;;;;;;6.65;100.00;103284.19;7390929;19;19942;-80
2023/12/15 09:44:54;;;;;;;24.25;7.78;;;;;;;6.69;100.00;103290.22;7395290;19;20409;-80
2023/12/15 09:47:47;;;;;;;18.15;5.20;;;;;;;6.73;100.00;103286.44;7395494;19;19933;-79
2023/12/15 09:50:20;;;;;;;20.55;7.35;;;;;;;6.75;100.00;103293.41;7398779;19;19940;-79
2023/12/15 09:52:49;;;;;;;14.73;4.15;;;;;;;6.80;100.00;103290.44;7395904;19;20543;-79
2023/12/15 09:55:18;;;;;;;17.55;5.47;;;;;;;6.83;100.00;103291.13;7392699;19;19995;-79
2023/12/15 09:57:47;;;;;;;19.10;5.38;;;;;;;6.87;100.00;103293.59;7394165;19;19926;-79
2023/12/15 10:00:19;;;;;;;22.05;5.03;;;;;;;6.88;100.00;103304.22;7391503;19;19998;-79
2023/12/15 10:02:48;;;;;;;12.48;4.57;;;;;;;6.91;100.00;103298.69;7387545;19;20696;-80
2023/12/15 10:05:18;;;;;;;13.93;3.92;;;;;;;6.94;100.00;103294.97;7391246;19;19922;-79
2023/12/15 10:07:46;;;;;;;17.70;4.45;;;;;;;6.97;100.00;103305.50;7390432;19;20364;-79
2023/12/15 10:10:15;;;;;;;21.27;5.82;;;;;;;7.00;100.00;103316.00;7383493;19;20011;-79
2023/12/15 10:12:44;;;;;;;18.02;6.18;;;;;;;7.03;100.00;103308.63;7382667;19;19933;-79
2023/12/15 10:15:13;;;;;;;22.08;5.47;;;;;;;7.06;100.00;103327.22;7383434;19;19933;-79
2023/12/15 10:17:45;;;;;;;24.35;5.95;;;;;;;7.12;100.00;103313.44;7386783;19;20249;-79
2023/12/15 10:20:14;;;;;;;23.08;6.65;;;;;;;7.15;100.00;103313.28;7392650;19;20020;-79
2023/12/15 10:22:43;;;;;;;22.05;6.32;;;;;;;7.20;100.00;103303.13;7380223;19;19926;-79
2023/12/15 10:25:19;;;;;;;21.80;4.78;;;;;;;7.23;100.00;103308.28;7380945;19;19956;-79
2023/12/15 10:27:49;;;;;;;21.80;4.88;;;;;;;7.28;100.00;103311.53;7392390;19;19922;-79
2023/12/15 10:30:19;;;;;;;14.32;3.88;;;;;;;7.34;100.00;103328.19;7386748;19;19922;-79
2023/12/15 10:32:53;;;;;;;14.27;3.55;;;;;;;7.36;100.00;103326.28;7395230;19;19954;-79
2023/12/15 10:35:24;;;;;;;24.95;4.82;;;;;;;7.38;100.00;103319.00;7382534;19;19922;-79
2023/12/15 10:37:54;;;;;;;18.23;4.15;;;;;;;7.40;100.00;103323.31;7391336;19;19923;-79
2023/12/15 10:40:23;;;;;;;15.20;3.83;;;;;;;7.43;100.00;103327.59;7387370;19;19938;-80
2023/12/15 10:42:53;;;;;;;18.13;4.88;;;;;;;7.44;100.00;103338.25;7389879;19;19919;-80
2023/12/15 10:45:23;;;;;;;31.42;9.02;;;;;;;7.47;100.00;103342.53;7391660;19;19942;-80
2023/12/15 10:47:57;;;;;;;35.60;11.18;;;;;;;7.48;100.00;103344.28;7392820;19;19927;-80
2023/12/15 10:50:27;;;;;;;24.10;6.75;;;;;;;7.50;100.00;103337.00;7392871;19;19927;-80
2023/12/15 10:52:57;;;;;;;30.02;7.32;;;;;;;7.52;100.00;103329.72;7391497;19;20313;-80
2023/12/15 10:55:28;;;;;;;33.15;10.10;;;;;;;7.53;100.00;103339.50;7392861;19;19922;-80
2023/12/15 10:57:58;;;;;;;40.38;9.85;;;;;;;7.58;100.00;103334.69;7393778;19;20188;-80
2023/12/15 11:00:27;;;;;;;20.95;5.15;;;;;;;7.60;100.00;103338.13;7390231;19;20631;-79
2023/12/15 11:03:18;;;;;;;21.30;4.88;;;;;;;7.62;100.00;103336.22;7391452;19;19919;-79
2023/12/15 11:05:47;;;;;;;19.10;4.65;;;;;;;7.66;100.00;103343.97;7391786;19;19922;-80
2023/12/15 11:08:17;;;;;;;20.90;4.20;;;;;;;7.67;100.00;103347.53;7392709;19;19935;-79
2023/12/15 11:10:46;;;;;;;18.52;3.80;;;;;;;7.67;100.00;103345.72;7381710;19;19961;-79
2023/12/15 11:13:57;;;;;;;16.20;3.42;;;;;;;7.66;100.00;103341.31;7379371;19;19923;-79
2023/12/15 11:16:26;;;;;;;18.58;4.30;;;;;;;7.69;100.00;103343.78;7388065;19;19933;-78
2023/12/15 11:19:00;;;;;;;15.43;4.13;;;;;;;7.71;100.00;103349.06;7389907;19;19960;-81
2023/12/15 11:21:29;;;;;;;17.83;4.03;;;;;;;7.73;100.00;103349.81;7391996;19;19950;-80
2023/12/15 11:24:17;;;;;;;19.23;4.45;;;;;;;7.74;100.00;103355.09;7375147;19;19923;-80
2023/12/15 11:26:48;;;;;;;19.92;4.47;;;;;;;7.79;100.00;103356.59;7389223;19;19927;-79
2023/12/15 11:29:19;;;;;;;19.02;3.65;;;;;;;7.80;100.00;103353.84;7391503;19;19933;-78